sensor_id;sensor_type;location;lat;lon;timestamp;pressure;altitude;pressure_sealevel;temperature;humidity
67397;BME280;57728;50.448;18.824;2023-02-01T00:02:02;97192.66;;;2.79;78.10
67397;BME280;57728;50.448;18.824;2023-02-01T00:04:04;97168.03;;;2.75;78.21
67397;BME280;57728;50.448;18.824;2023-02-01T00:06:06;97188.94;;;2.80;77.98
67397;BME280;57728;50.448;18.824;2023-02-01T00:08:08;97185.03;;;2.89;77.81
67397;BME280;57728;50.448;18.824;2023-02-01T00:10:11;97161.03;;;2.81;77.74
67397;BME280;57728;50.448;18.824;2023-02-01T00:12:21;97186.50;;;2.98;77.52
67397;BME280;57728;50.448;18.824;2023-02-01T00:14:23;97162.09;;;2.93;77.50
67397;BME280;57728;50.448;18.824;2023-02-01T00:16:28;97184.84;;;3.04;77.16
67397;BME280;57728;50.448;18.824;2023-02-01T00:18:31;97182.00;;;3.05;77.02
67397;BME280;57728;50.448;18.824;2023-02-01T00:20:33;97181.38;;;3.10;76.54
67397;BME280;57728;50.448;18.824;2023-02-01T00:22:35;97177.88;;;3.23;76.58
67397;BME280;57728;50.448;18.824;2023-02-01T00:24:37;97207.69;;;3.28;76.11
67397;BME280;57728;50.448;18.824;2023-02-01T00:26:44;97184.50;;;3.27;75.94
67397;BME280;57728;50.448;18.824;2023-02-01T00:28:47;97213.50;;;3.38;75.87
67397;BME280;57728;50.448;18.824;2023-02-01T00:31:02;97207.28;;;3.31;75.74
67397;BME280;57728;50.448;18.824;2023-02-01T00:33:05;97208.94;;;3.46;75.44
67397;BME280;57728;50.448;18.824;2023-02-01T00:35:08;97261.31;;;3.43;75.31
67397;BME280;57728;50.448;18.824;2023-02-01T00:37:09;97270.41;;;3.42;75.44
67397;BME280;57728;50.448;18.824;2023-02-01T00:39:11;97201.63;;;3.06;75.43
67397;BME280;57728;50.448;18.824;2023-02-01T00:41:16;97266.41;;;3.18;75.46
67397;BME280;57728;50.448;18.824;2023-02-01T00:43:19;97281.03;;;2.95;75.56
67397;BME280;57728;50.448;18.824;2023-02-01T00:45:21;97275.19;;;2.85;75.87
67397;BME280;57728;50.448;18.824;2023-02-01T00:47:23;97275.59;;;2.82;76.08
67397;BME280;57728;50.448;18.824;2023-02-01T00:49:24;97204.25;;;2.37;76.24
67397;BME280;57728;50.448;18.824;2023-02-01T00:51:27;97232.00;;;2.45;76.45
67397;BME280;57728;50.448;18.824;2023-02-01T00:53:31;97278.00;;;2.63;76.71
67397;BME280;57728;50.448;18.824;2023-02-01T00:55:33;97261.97;;;2.48;76.81
67397;BME280;57728;50.448;18.824;2023-02-01T00:57:35;97220.38;;;2.37;76.87
67397;BME280;57728;50.448;18.824;2023-02-01T00:59:37;97195.69;;;2.20;76.90
67397;BME280;57728;50.448;18.824;2023-02-01T01:01:38;97237.09;;;2.33;76.85
67397;BME280;57728;50.448;18.824;2023-02-01T01:03:43;97243.72;;;2.37;76.90
67397;BME280;57728;50.448;18.824;2023-02-01T01:05:48;97245.31;;;2.24;76.48
67397;BME280;57728;50.448;18.824;2023-02-01T01:07:49;97221.28;;;2.16;76.40
67397;BME280;57728;50.448;18.824;2023-02-01T01:09:51;97277.38;;;2.33;76.54
67397;BME280;57728;50.448;18.824;2023-02-01T01:11:53;97262.28;;;2.32;76.56
67397;BME280;57728;50.448;18.824;2023-02-01T01:13:56;97268.06;;;2.29;76.46
67397;BME280;57728;50.448;18.824;2023-02-01T01:16:01;97278.81;;;2.29;76.42
67397;BME280;57728;50.448;18.824;2023-02-01T01:18:06;97270.31;;;2.25;76.45
67397;BME280;57728;50.448;18.824;2023-02-01T01:20:09;97233.75;;;1.96;76.40
67397;BME280;57728;50.448;18.824;2023-02-01T01:22:11;97285.16;;;2.21;76.50
67397;BME280;57728;50.448;18.824;2023-02-01T01:24:13;97266.78;;;2.18;76.54
67397;BME280;57728;50.448;18.824;2023-02-01T01:26:19;97253.44;;;2.03;76.57
67397;BME280;57728;50.448;18.824;2023-02-01T01:28:23;97272.91;;;2.12;76.70
67397;BME280;57728;50.448;18.824;2023-02-01T01:30:25;97294.44;;;2.18;76.79
67397;BME280;57728;50.448;18.824;2023-02-01T01:32:26;97298.16;;;2.17;76.92
67397;BME280;57728;50.448;18.824;2023-02-01T01:34:28;97274.97;;;2.10;77.15
67397;BME280;57728;50.448;18.824;2023-02-01T01:36:30;97264.84;;;2.12;77.20
67397;BME280;57728;50.448;18.824;2023-02-01T01:38:31;97278.94;;;2.20;77.11
67397;BME280;57728;50.448;18.824;2023-02-01T01:40:33;97277.72;;;2.23;77.17
67397;BME280;57728;50.448;18.824;2023-02-01T01:42:43;97265.09;;;2.17;77.17
67397;BME280;57728;50.448;18.824;2023-02-01T01:45:03;97273.38;;;2.22;77.54
67397;BME280;57728;50.448;18.824;2023-02-01T01:47:09;97256.16;;;2.10;77.39
67397;BME280;57728;50.448;18.824;2023-02-01T01:49:20;97275.03;;;2.23;77.40
67397;BME280;57728;50.448;18.824;2023-02-01T01:51:28;97275.91;;;2.23;77.68
67397;BME280;57728;50.448;18.824;2023-02-01T01:53:40;97253.50;;;2.10;77.66
67397;BME280;57728;50.448;18.824;2023-02-01T01:55:49;97258.06;;;2.16;77.58
67397;BME280;57728;50.448;18.824;2023-02-01T01:58:04;97268.22;;;2.20;77.45
67397;BME280;57728;50.448;18.824;2023-02-01T02:00:13;97283.16;;;2.30;77.40
67397;BME280;57728;50.448;18.824;2023-02-01T02:02:19;97206.44;;;1.85;77.21
67397;BME280;57728;50.448;18.824;2023-02-01T02:04:23;97274.91;;;2.31;77.26
67397;BME280;57728;50.448;18.824;2023-02-01T02:06:57;97275.53;;;2.33;77.19
67397;BME280;57728;50.448;18.824;2023-02-01T02:09:04;97275.03;;;2.23;77.05
67397;BME280;57728;50.448;18.824;2023-02-01T02:11:06;97238.78;;;2.05;77.11
67397;BME280;57728;50.448;18.824;2023-02-01T02:13:09;97268.84;;;2.22;77.03
67397;BME280;57728;50.448;18.824;2023-02-01T02:15:14;97285.66;;;2.31;77.23
67397;BME280;57728;50.448;18.824;2023-02-01T02:17:32;97245.19;;;2.04;77.28
67397;BME280;57728;50.448;18.824;2023-02-01T02:20:20;97291.22;;;2.30;77.33
67397;BME280;57728;50.448;18.824;2023-02-01T02:27:59;97267.84;;;2.30;77.59
67397;BME280;57728;50.448;18.824;2023-02-01T02:32:47;97280.47;;;2.30;77.75
67397;BME280;57728;50.448;18.824;2023-02-01T02:35:01;97293.69;;;2.31;77.85
67397;BME280;57728;50.448;18.824;2023-02-01T02:37:42;97294.09;;;2.28;77.93
67397;BME280;57728;50.448;18.824;2023-02-01T02:40:16;97299.47;;;2.28;77.93
67397;BME280;57728;50.448;18.824;2023-02-01T02:43:06;97300.28;;;2.29;77.87
67397;BME280;57728;50.448;18.824;2023-02-01T02:51:13;97308.66;;;2.40;77.90
67397;BME280;57728;50.448;18.824;2023-02-01T02:53:58;97304.91;;;2.41;77.65
67397;BME280;57728;50.448;18.824;2023-02-01T02:56:27;97288.31;;;2.31;77.72
67397;BME280;57728;50.448;18.824;2023-02-01T02:58:50;97271.81;;;2.34;77.63
67397;BME280;57728;50.448;18.824;2023-02-01T03:01:12;97313.69;;;2.57;77.79
67397;BME280;57728;50.448;18.824;2023-02-01T03:03:37;97301.31;;;2.56;77.57
67397;BME280;57728;50.448;18.824;2023-02-01T03:05:59;97308.38;;;2.64;77.32
67397;BME280;57728;50.448;18.824;2023-02-01T03:08:11;97299.41;;;2.50;77.17
67397;BME280;57728;50.448;18.824;2023-02-01T03:12:53;97280.16;;;2.46;76.76
67397;BME280;57728;50.448;18.824;2023-02-01T03:15:08;97291.19;;;2.58;76.88
67397;BME280;57728;50.448;18.824;2023-02-01T03:17:21;97300.75;;;2.67;76.87
67397;BME280;57728;50.448;18.824;2023-02-01T03:19:40;97308.63;;;2.69;76.56
67397;BME280;57728;50.448;18.824;2023-02-01T03:22:08;97315.00;;;2.68;76.77
67397;BME280;57728;50.448;18.824;2023-02-01T03:24:32;97305.28;;;2.67;76.93
67397;BME280;57728;50.448;18.824;2023-02-01T03:26:53;97292.03;;;2.65;76.52
67397;BME280;57728;50.448;18.824;2023-02-01T03:29:16;97292.19;;;2.57;76.56
67397;BME280;57728;50.448;18.824;2023-02-01T03:31:21;97301.78;;;2.66;76.86
67397;BME280;57728;50.448;18.824;2023-02-01T03:33:26;97276.88;;;2.51;76.95
67397;BME280;57728;50.448;18.824;2023-02-01T03:38:08;97311.72;;;2.72;76.82
67397;BME280;57728;50.448;18.824;2023-02-01T03:40:19;97308.41;;;2.70;76.59
67397;BME280;57728;50.448;18.824;2023-02-01T03:42:37;97305.94;;;2.69;76.39
67397;BME280;57728;50.448;18.824;2023-02-01T03:45:10;97305.09;;;2.68;76.42
67397;BME280;57728;50.448;18.824;2023-02-01T03:47:23;97318.06;;;2.58;76.48
67397;BME280;57728;50.448;18.824;2023-02-01T03:49:35;97303.81;;;2.64;76.57
67397;BME280;57728;50.448;18.824;2023-02-01T03:51:41;97310.84;;;2.65;76.38
67397;BME280;57728;50.448;18.824;2023-02-01T03:53:48;97304.22;;;2.61;76.49
67397;BME280;57728;50.448;18.824;2023-02-01T03:55:53;97314.34;;;2.59;76.67
67397;BME280;57728;50.448;18.824;2023-02-01T03:58:11;97249.00;;;2.17;76.63
67397;BME280;57728;50.448;18.824;2023-02-01T04:00:19;97278.44;;;2.38;76.73
67397;BME280;57728;50.448;18.824;2023-02-01T04:02:26;97271.41;;;2.31;76.88
67397;BME280;57728;50.448;18.824;2023-02-01T04:04:27;97306.84;;;2.54;77.02
67397;BME280;57728;50.448;18.824;2023-02-01T04:06:31;97311.22;;;2.55;77.05
67397;BME280;57728;50.448;18.824;2023-02-01T04:08:37;97295.22;;;2.40;76.94
67397;BME280;57728;50.448;18.824;2023-02-01T04:10:39;97303.47;;;2.39;77.15
67397;BME280;57728;50.448;18.824;2023-02-01T04:12:42;97253.34;;;2.18;77.00
67397;BME280;57728;50.448;18.824;2023-02-01T04:14:44;97305.16;;;2.47;77.18
67397;BME280;57728;50.448;18.824;2023-02-01T04:16:45;97289.19;;;2.38;77.33
67397;BME280;57728;50.448;18.824;2023-02-01T04:18:47;97297.09;;;2.47;77.25
67397;BME280;57728;50.448;18.824;2023-02-01T04:20:49;97302.69;;;2.45;77.14
67397;BME280;57728;50.448;18.824;2023-02-01T04:22:51;97298.78;;;2.48;77.27
67397;BME280;57728;50.448;18.824;2023-02-01T04:24:53;97298.59;;;2.49;77.21
67397;BME280;57728;50.448;18.824;2023-02-01T04:26:54;97291.75;;;2.47;77.25
67397;BME280;57728;50.448;18.824;2023-02-01T04:28:56;97290.47;;;2.43;77.11
67397;BME280;57728;50.448;18.824;2023-02-01T04:30:58;97301.25;;;2.49;77.28
67397;BME280;57728;50.448;18.824;2023-02-01T04:33:00;97273.84;;;2.26;77.02
67397;BME280;57728;50.448;18.824;2023-02-01T04:35:02;97309.94;;;2.45;77.25
67397;BME280;57728;50.448;18.824;2023-02-01T04:37:07;97197.50;;;1.78;77.25
67397;BME280;57728;50.448;18.824;2023-02-01T04:39:09;97302.03;;;2.43;77.16
67397;BME280;57728;50.448;18.824;2023-02-01T04:41:11;97269.69;;;2.23;77.13
67397;BME280;57728;50.448;18.824;2023-02-01T04:43:13;97296.03;;;2.41;77.32
67397;BME280;57728;50.448;18.824;2023-02-01T04:45:14;97285.03;;;2.29;77.41
67397;BME280;57728;50.448;18.824;2023-02-01T04:47:15;97300.59;;;2.40;77.20
67397;BME280;57728;50.448;18.824;2023-02-01T04:49:18;97273.00;;;2.25;77.20
67397;BME280;57728;50.448;18.824;2023-02-01T04:51:19;97229.47;;;2.01;77.29
67397;BME280;57728;50.448;18.824;2023-02-01T04:53:21;97302.00;;;2.36;77.26
67397;BME280;57728;50.448;18.824;2023-02-01T04:55:23;97292.44;;;2.27;77.36
67397;BME280;57728;50.448;18.824;2023-02-01T04:57:25;97281.28;;;2.30;77.49
67397;BME280;57728;50.448;18.824;2023-02-01T04:59:26;97315.25;;;2.38;77.48
67397;BME280;57728;50.448;18.824;2023-02-01T05:01:30;97299.94;;;2.38;77.25
67397;BME280;57728;50.448;18.824;2023-02-01T05:03:33;97309.03;;;2.37;77.24
67397;BME280;57728;50.448;18.824;2023-02-01T05:05:35;97228.19;;;1.97;77.03
67397;BME280;57728;50.448;18.824;2023-02-01T05:07:37;97252.69;;;2.16;77.16
67397;BME280;57728;50.448;18.824;2023-02-01T05:09:39;97290.47;;;2.43;76.92
67397;BME280;57728;50.448;18.824;2023-02-01T05:11:40;97286.56;;;2.45;76.86
67397;BME280;57728;50.448;18.824;2023-02-01T05:14:01;97266.03;;;2.31;76.87
67397;BME280;57728;50.448;18.824;2023-02-01T05:16:03;97279.13;;;2.47;76.77
67397;BME280;57728;50.448;18.824;2023-02-01T05:18:05;97240.38;;;2.28;76.63
67397;BME280;57728;50.448;18.824;2023-02-01T05:20:09;97278.50;;;2.45;76.47
67397;BME280;57728;50.448;18.824;2023-02-01T05:22:10;97258.38;;;2.34;76.54
67397;BME280;57728;50.448;18.824;2023-02-01T05:24:13;97284.91;;;2.44;76.39
67397;BME280;57728;50.448;18.824;2023-02-01T05:26:18;97261.06;;;2.34;76.29
67397;BME280;57728;50.448;18.824;2023-02-01T05:28:19;97261.06;;;2.28;76.24
67397;BME280;57728;50.448;18.824;2023-02-01T05:30:20;97253.56;;;2.23;76.19
67397;BME280;57728;50.448;18.824;2023-02-01T05:32:23;97239.91;;;2.18;76.25
67397;BME280;57728;50.448;18.824;2023-02-01T05:34:24;97267.66;;;2.32;76.24
67397;BME280;57728;50.448;18.824;2023-02-01T05:36:26;97269.56;;;2.38;76.13
67397;BME280;57728;50.448;18.824;2023-02-01T05:38:28;97263.53;;;2.29;76.34
67397;BME280;57728;50.448;18.824;2023-02-01T05:40:30;97235.97;;;2.20;76.24
67397;BME280;57728;50.448;18.824;2023-02-01T05:42:31;97242.81;;;2.23;75.93
67397;BME280;57728;50.448;18.824;2023-02-01T05:44:34;97257.38;;;2.35;75.90
67397;BME280;57728;50.448;18.824;2023-02-01T05:46:35;97275.91;;;2.30;75.92
67397;BME280;57728;50.448;18.824;2023-02-01T05:48:37;97275.50;;;2.27;75.70
67397;BME280;57728;50.448;18.824;2023-02-01T05:50:39;97266.41;;;2.28;75.72
67397;BME280;57728;50.448;18.824;2023-02-01T05:52:43;97263.91;;;2.26;75.65
67397;BME280;57728;50.448;18.824;2023-02-01T05:54:46;97274.69;;;2.33;75.54
67397;BME280;57728;50.448;18.824;2023-02-01T05:56:51;97250.66;;;2.18;75.31
67397;BME280;57728;50.448;18.824;2023-02-01T05:58:52;97229.72;;;2.06;75.44
67397;BME280;57728;50.448;18.824;2023-02-01T06:00:54;97241.56;;;2.19;75.30
67397;BME280;57728;50.448;18.824;2023-02-01T06:02:56;97234.34;;;2.19;75.10
67397;BME280;57728;50.448;18.824;2023-02-01T06:04:57;97278.91;;;2.49;75.01
67397;BME280;57728;50.448;18.824;2023-02-01T06:06:59;97278.56;;;2.52;74.93
67397;BME280;57728;50.448;18.824;2023-02-01T06:09:01;97290.72;;;2.54;74.36
67397;BME280;57728;50.448;18.824;2023-02-01T06:11:04;97268.19;;;2.49;74.31
67397;BME280;57728;50.448;18.824;2023-02-01T06:13:06;97244.56;;;2.37;74.17
67397;BME280;57728;50.448;18.824;2023-02-01T06:15:09;97223.47;;;2.34;74.10
67397;BME280;57728;50.448;18.824;2023-02-01T06:17:10;97267.84;;;2.65;74.06
67397;BME280;57728;50.448;18.824;2023-02-01T06:19:12;97281.09;;;2.67;73.80
67397;BME280;57728;50.448;18.824;2023-02-01T06:21:15;97239.22;;;2.44;73.53
67397;BME280;57728;50.448;18.824;2023-02-01T06:23:24;97253.31;;;2.53;73.36
67397;BME280;57728;50.448;18.824;2023-02-01T06:25:25;97260.41;;;2.61;73.42
67397;BME280;57728;50.448;18.824;2023-02-01T06:27:27;97282.81;;;2.74;73.08
67397;BME280;57728;50.448;18.824;2023-02-01T06:29:29;97287.13;;;2.75;73.21
67397;BME280;57728;50.448;18.824;2023-02-01T06:31:30;97266.63;;;2.68;73.05
67397;BME280;57728;50.448;18.824;2023-02-01T06:33:34;97286.09;;;2.77;72.87
67397;BME280;57728;50.448;18.824;2023-02-01T06:35:36;97284.25;;;2.77;73.02
67397;BME280;57728;50.448;18.824;2023-02-01T06:37:38;97270.13;;;2.68;72.87
67397;BME280;57728;50.448;18.824;2023-02-01T06:39:40;97264.78;;;2.68;72.66
67397;BME280;57728;50.448;18.824;2023-02-01T06:41:45;97269.56;;;2.73;72.75
67397;BME280;57728;50.448;18.824;2023-02-01T06:43:47;97290.69;;;2.83;72.77
67397;BME280;57728;50.448;18.824;2023-02-01T06:45:50;97190.81;;;2.37;72.45
67397;BME280;57728;50.448;18.824;2023-02-01T06:47:52;97259.75;;;2.58;72.42
67397;BME280;57728;50.448;18.824;2023-02-01T06:49:54;97291.72;;;2.82;72.49
67397;BME280;57728;50.448;18.824;2023-02-01T06:51:56;97265.47;;;2.84;72.43
67397;BME280;57728;50.448;18.824;2023-02-01T06:53:58;97285.78;;;2.93;72.31
67397;BME280;57728;50.448;18.824;2023-02-01T06:56:01;97276.66;;;2.94;72.36
67397;BME280;57728;50.448;18.824;2023-02-01T06:58:05;97259.31;;;2.90;72.23
67397;BME280;57728;50.448;18.824;2023-02-01T07:00:06;97276.47;;;2.89;72.35
67397;BME280;57728;50.448;18.824;2023-02-01T07:02:11;97269.84;;;2.98;72.19
67397;BME280;57728;50.448;18.824;2023-02-01T07:04:14;97245.63;;;2.85;72.38
67397;BME280;57728;50.448;18.824;2023-02-01T07:06:15;97271.31;;;3.01;72.19
67397;BME280;57728;50.448;18.824;2023-02-01T07:08:18;97259.31;;;2.90;72.13
67397;BME280;57728;50.448;18.824;2023-02-01T07:10:20;97276.28;;;3.04;71.86
67397;BME280;57728;50.448;18.824;2023-02-01T07:12:22;97198.78;;;2.59;71.82
67397;BME280;57728;50.448;18.824;2023-02-01T07:14:23;97250.81;;;3.00;71.71
67397;BME280;57728;50.448;18.824;2023-02-01T07:16:26;97212.50;;;2.78;71.55
67397;BME280;57728;50.448;18.824;2023-02-01T07:18:29;97243.59;;;3.00;71.54
67397;BME280;57728;50.448;18.824;2023-02-01T07:20:31;97278.81;;;3.12;71.29
67397;BME280;57728;50.448;18.824;2023-02-01T07:22:33;97271.59;;;3.13;71.30
67397;BME280;57728;50.448;18.824;2023-02-01T07:24:34;97268.03;;;3.12;71.18
67397;BME280;57728;50.448;18.824;2023-02-01T07:26:39;97253.34;;;3.08;71.31
67397;BME280;57728;50.448;18.824;2023-02-01T07:28:41;97266.22;;;3.13;71.09
67397;BME280;57728;50.448;18.824;2023-02-01T07:30:43;97272.41;;;3.13;71.18
67397;BME280;57728;50.448;18.824;2023-02-01T07:32:44;97245.88;;;3.03;71.10
67397;BME280;57728;50.448;18.824;2023-02-01T07:34:46;97274.88;;;3.15;71.07
67397;BME280;57728;50.448;18.824;2023-02-01T07:36:48;97264.56;;;3.18;70.89
67397;BME280;57728;50.448;18.824;2023-02-01T07:38:49;97271.38;;;3.21;70.95
67397;BME280;57728;50.448;18.824;2023-02-01T07:41:01;97250.25;;;3.04;70.87
67397;BME280;57728;50.448;18.824;2023-02-01T07:43:05;97237.00;;;3.03;70.48
67397;BME280;57728;50.448;18.824;2023-02-01T07:45:08;97261.03;;;3.18;70.19
67397;BME280;57728;50.448;18.824;2023-02-01T07:47:11;97263.72;;;3.18;70.24
67397;BME280;57728;50.448;18.824;2023-02-01T07:49:12;97268.50;;;3.29;70.38
67397;BME280;57728;50.448;18.824;2023-02-01T07:51:16;97229.16;;;3.15;70.23
67397;BME280;57728;50.448;18.824;2023-02-01T07:53:19;97260.03;;;3.32;70.11
67397;BME280;57728;50.448;18.824;2023-02-01T07:55:20;97225.03;;;3.05;69.88
67397;BME280;57728;50.448;18.824;2023-02-01T07:57:22;97255.69;;;3.31;69.88
67397;BME280;57728;50.448;18.824;2023-02-01T07:59:24;97263.78;;;3.31;69.88
67397;BME280;57728;50.448;18.824;2023-02-01T08:01:27;97263.59;;;3.39;69.59
67397;BME280;57728;50.448;18.824;2023-02-01T08:03:30;97208.84;;;2.92;69.69
67397;BME280;57728;50.448;18.824;2023-02-01T08:05:32;97260.03;;;3.32;69.62
67397;BME280;57728;50.448;18.824;2023-02-01T08:07:34;97249.69;;;3.29;69.77
67397;BME280;57728;50.448;18.824;2023-02-01T08:09:35;97261.09;;;3.31;69.88
67397;BME280;57728;50.448;18.824;2023-02-01T08:11:38;97265.22;;;3.34;69.94
67397;BME280;57728;50.448;18.824;2023-02-01T08:13:40;97275.78;;;3.35;69.89
67397;BME280;57728;50.448;18.824;2023-02-01T08:15:41;97278.06;;;3.38;69.93
67397;BME280;57728;50.448;18.824;2023-02-01T08:17:48;97256.31;;;3.33;69.95
67397;BME280;57728;50.448;18.824;2023-02-01T08:19:51;97261.50;;;3.41;70.03
67397;BME280;57728;50.448;18.824;2023-02-01T08:21:52;97227.13;;;3.17;69.84
67397;BME280;57728;50.448;18.824;2023-02-01T08:23:54;97255.28;;;3.34;69.84
67397;BME280;57728;50.448;18.824;2023-02-01T08:26:09;97257.78;;;3.42;69.84
67397;BME280;57728;50.448;18.824;2023-02-01T08:28:16;97226.28;;;3.16;69.63
67397;BME280;57728;50.448;18.824;2023-02-01T08:30:18;97245.53;;;3.26;69.60
67397;BME280;57728;50.448;18.824;2023-02-01T08:32:19;97234.16;;;3.24;69.80
67397;BME280;57728;50.448;18.824;2023-02-01T08:34:21;97238.06;;;3.22;69.55
67397;BME280;57728;50.448;18.824;2023-02-01T08:36:24;97238.50;;;3.25;69.91
67397;BME280;57728;50.448;18.824;2023-02-01T08:38:27;97258.78;;;3.35;69.68
67397;BME280;57728;50.448;18.824;2023-02-01T08:40:29;97271.03;;;3.44;69.57
67397;BME280;57728;50.448;18.824;2023-02-01T08:42:31;97241.84;;;3.34;69.57
67397;BME280;57728;50.448;18.824;2023-02-01T08:44:51;97245.72;;;3.25;69.42
67397;BME280;57728;50.448;18.824;2023-02-01T08:46:52;97257.38;;;3.46;69.46
67397;BME280;57728;50.448;18.824;2023-02-01T08:48:55;97219.22;;;3.15;69.35
67397;BME280;57728;50.448;18.824;2023-02-01T08:50:57;97232.72;;;3.29;69.50
67397;BME280;57728;50.448;18.824;2023-02-01T08:53:01;97246.63;;;3.46;69.24
67397;BME280;57728;50.448;18.824;2023-02-01T08:55:04;97245.16;;;3.43;69.06
67397;BME280;57728;50.448;18.824;2023-02-01T08:57:07;97228.19;;;3.42;69.13
67397;BME280;57728;50.448;18.824;2023-02-01T08:59:10;97256.34;;;3.60;68.77
67397;BME280;57728;50.448;18.824;2023-02-01T09:01:14;97263.22;;;3.69;68.75
67397;BME280;57728;50.448;18.824;2023-02-01T09:03:17;97267.53;;;3.70;68.74
67397;BME280;57728;50.448;18.824;2023-02-01T09:05:19;97237.13;;;3.56;68.76
67397;BME280;57728;50.448;18.824;2023-02-01T09:07:24;97247.00;;;3.49;68.37
67397;BME280;57728;50.448;18.824;2023-02-01T09:09:27;97191.97;;;3.38;68.41
67397;BME280;57728;50.448;18.824;2023-02-01T09:11:29;97247.06;;;3.69;68.38
67397;BME280;57728;50.448;18.824;2023-02-01T09:13:31;97258.25;;;3.79;68.33
67397;BME280;57728;50.448;18.824;2023-02-01T09:15:35;97225.91;;;3.66;68.29
67397;BME280;57728;50.448;18.824;2023-02-01T09:17:36;97241.88;;;3.81;68.22
67397;BME280;57728;50.448;18.824;2023-02-01T09:19:39;97228.41;;;3.74;68.00
67397;BME280;57728;50.448;18.824;2023-02-01T09:21:41;97241.47;;;3.91;68.09
67397;BME280;57728;50.448;18.824;2023-02-01T09:23:42;97268.19;;;3.99;67.95
67397;BME280;57728;50.448;18.824;2023-02-01T09:25:44;97252.66;;;3.94;67.95
67397;BME280;57728;50.448;18.824;2023-02-01T09:27:45;97260.28;;;4.04;67.82
67397;BME280;57728;50.448;18.824;2023-02-01T09:29:47;97245.41;;;3.95;67.78
67397;BME280;57728;50.448;18.824;2023-02-01T09:31:54;97256.41;;;4.00;67.73
67397;BME280;57728;50.448;18.824;2023-02-01T09:33:56;97259.06;;;4.13;67.65
67397;BME280;57728;50.448;18.824;2023-02-01T09:36:00;97252.22;;;4.18;67.34
67397;BME280;57728;50.448;18.824;2023-02-01T09:38:04;97257.63;;;4.24;67.48
67397;BME280;57728;50.448;18.824;2023-02-01T09:40:06;97243.94;;;4.19;67.34
67397;BME280;57728;50.448;18.824;2023-02-01T09:45:03;97262.75;;;4.33;67.08
67397;BME280;57728;50.448;18.824;2023-02-01T09:47:18;97252.41;;;4.36;67.25
67397;BME280;57728;50.448;18.824;2023-02-01T09:49:31;97243.28;;;4.30;67.17
67397;BME280;57728;50.448;18.824;2023-02-01T09:51:42;97240.38;;;4.32;67.00
67397;BME280;57728;50.448;18.824;2023-02-01T09:56:18;97223.19;;;4.33;66.79
67397;BME280;57728;50.448;18.824;2023-02-01T09:58:36;97203.09;;;4.22;66.93
67397;BME280;57728;50.448;18.824;2023-02-01T10:00:53;97226.25;;;4.43;66.41
67397;BME280;57728;50.448;18.824;2023-02-01T10:02:58;97214.66;;;4.36;66.64
67397;BME280;57728;50.448;18.824;2023-02-01T10:05:01;97241.19;;;4.53;66.63
67397;BME280;57728;50.448;18.824;2023-02-01T10:09:20;97226.25;;;4.57;66.58
67397;BME280;57728;50.448;18.824;2023-02-01T10:22:39;97223.69;;;4.69;66.23
67397;BME280;57728;50.448;18.824;2023-02-01T10:24:53;97206.28;;;4.64;65.97
67397;BME280;57728;50.448;18.824;2023-02-01T10:27:18;97213.94;;;4.68;65.57
67397;BME280;57728;50.448;18.824;2023-02-01T10:29:26;97225.94;;;4.85;65.59
67397;BME280;57728;50.448;18.824;2023-02-01T10:31:37;97205.84;;;4.74;65.17
67397;BME280;57728;50.448;18.824;2023-02-01T10:33:48;97192.50;;;4.86;65.24
67397;BME280;57728;50.448;18.824;2023-02-01T10:38:36;97174.81;;;4.97;64.71
67397;BME280;57728;50.448;18.824;2023-02-01T10:40:39;97182.47;;;5.00;64.53
67397;BME280;57728;50.448;18.824;2023-02-01T10:42:41;97195.72;;;5.08;64.46
67397;BME280;57728;50.448;18.824;2023-02-01T10:44:45;97199.88;;;5.04;63.86
67397;BME280;57728;50.448;18.824;2023-02-01T10:46:50;97223.16;;;4.98;64.51
67397;BME280;57728;50.448;18.824;2023-02-01T10:48:55;97217.53;;;5.00;64.80
67397;BME280;57728;50.448;18.824;2023-02-01T10:51:26;97179.75;;;4.68;65.34
67397;BME280;57728;50.448;18.824;2023-02-01T10:55:55;97182.25;;;4.56;66.13
67397;BME280;57728;50.448;18.824;2023-02-01T10:58:00;97212.03;;;4.75;66.25
67397;BME280;57728;50.448;18.824;2023-02-01T11:00:19;97206.94;;;4.60;66.65
67397;BME280;57728;50.448;18.824;2023-02-01T11:02:30;97200.09;;;4.51;66.99
67397;BME280;57728;50.448;18.824;2023-02-01T11:04:35;97209.84;;;4.58;67.39
67397;BME280;57728;50.448;18.824;2023-02-01T11:06:40;97181.06;;;4.45;67.66
67397;BME280;57728;50.448;18.824;2023-02-01T11:08:52;97191.16;;;4.63;67.80
67397;BME280;57728;50.448;18.824;2023-02-01T11:11:02;97187.63;;;4.70;67.49
67397;BME280;57728;50.448;18.824;2023-02-01T11:13:18;97186.16;;;4.67;68.11
67397;BME280;57728;50.448;18.824;2023-02-01T11:15:21;97161.91;;;4.67;67.64
67397;BME280;57728;50.448;18.824;2023-02-01T11:17:38;97180.09;;;4.78;67.33
67397;BME280;57728;50.448;18.824;2023-02-01T11:19:45;97177.75;;;4.89;67.35
67397;BME280;57728;50.448;18.824;2023-02-01T11:21:56;97151.03;;;4.80;67.48
67397;BME280;57728;50.448;18.824;2023-02-01T11:24:05;97177.88;;;5.07;66.75
67397;BME280;57728;50.448;18.824;2023-02-01T11:26:24;97175.34;;;5.12;66.50
67397;BME280;57728;50.448;18.824;2023-02-01T11:28:34;97149.88;;;5.02;66.49
67397;BME280;57728;50.448;18.824;2023-02-01T11:30:44;97160.38;;;5.16;66.40
67397;BME280;57728;50.448;18.824;2023-02-01T11:32:50;97170.94;;;5.25;65.80
67397;BME280;57728;50.448;18.824;2023-02-01T11:34:57;97150.38;;;5.24;65.52
67397;BME280;57728;50.448;18.824;2023-02-01T11:37:03;97161.28;;;5.36;65.42
67397;BME280;57728;50.448;18.824;2023-02-01T11:41:22;97158.97;;;5.39;65.20
67397;BME280;57728;50.448;18.824;2023-02-01T11:43:24;97142.34;;;5.42;64.96
67397;BME280;57728;50.448;18.824;2023-02-01T11:45:33;97157.72;;;5.42;64.87
67397;BME280;57728;50.448;18.824;2023-02-01T11:47:40;97140.97;;;5.33;64.58
67397;BME280;57728;50.448;18.824;2023-02-01T11:49:42;97128.31;;;5.33;64.51
67397;BME280;57728;50.448;18.824;2023-02-01T11:59:09;97133.97;;;5.50;64.34
67397;BME280;57728;50.448;18.824;2023-02-01T12:01:31;97138.97;;;5.47;64.40